Time;durP1;ratioP1;P1;durP2;ratioP2;P2;SDS_P1;SDS_P2;PMS_P1;PMS_P2;Temp;Humidity;BMP_temperature;BMP_pressure;BME280_temperature;BME280_humidity;BME280_pressure;Samples;Min_cycle;Max_cycle;Signal;HPM_P1;HPM_P2
2022/01/13 00:01:17;;;;;;;28.90;11.20;;;;;;;2.08;98.52;103154.89;108383;1276;75014;-81
2022/01/13 00:03:45;;;;;;;24.30;12.00;;;;;;;2.09;98.25;103162.17;108109;1277;72335;-80
2022/01/13 00:06:12;;;;;;;32.80;11.60;;;;;;;2.09;98.19;103162.55;108273;1277;72891;-80
2022/01/13 00:08:39;;;;;;;24.90;11.70;;;;;;;2.09;98.10;103170.60;108127;1277;61446;-81
2022/01/13 00:11:09;;;;;;;26.60;11.40;;;;;;;2.09;98.00;103169.18;108316;1277;60495;-81
2022/01/13 00:13:53;;;;;;;29.10;12.20;;;;;;;2.09;97.88;103164.61;108287;1277;74431;-78
2022/01/13 00:19:18;;;;;;;27.00;12.00;;;;;;;2.05;97.67;103167.23;108312;1276;71921;-78
2022/01/13 00:21:55;;;;;;;25.20;12.20;;;;;;;2.03;97.79;103164.15;108310;1277;62537;-79
2022/01/13 00:24:23;;;;;;;23.90;11.20;;;;;;;2.00;97.58;103165.33;108345;1275;61037;-78
2022/01/13 00:26:56;;;;;;;22.90;11.50;;;;;;;1.97;97.69;103161.41;108050;1277;75181;-79
2022/01/13 00:29:30;;;;;;;22.60;10.10;;;;;;;1.94;97.61;103164.67;108062;1277;71098;-78
2022/01/13 00:32:11;;;;;;;25.70;11.10;;;;;;;1.92;97.91;103162.14;108189;1277;73019;-79
2022/01/13 00:34:38;;;;;;;25.90;11.40;;;;;;;1.91;97.78;103162.18;108350;1276;61198;-78
2022/01/13 00:37:05;;;;;;;21.70;9.20;;;;;;;1.92;97.43;103159.52;108070;1277;62245;-79
2022/01/13 00:39:32;;;;;;;22.70;9.30;;;;;;;1.94;97.31;103159.95;108374;1276;74756;-80
2022/01/13 00:41:59;;;;;;;23.10;11.70;;;;;;;1.97;97.04;103160.70;108201;1277;71063;-81
2022/01/13 00:44:26;;;;;;;26.60;10.80;;;;;;;1.99;97.17;103161.85;108368;1277;72105;-81
2022/01/13 00:47:00;;;;;;;26.00;13.40;;;;;;;2.01;96.75;103171.02;108111;1277;61105;-81
2022/01/13 00:49:35;;;;;;;13.70;7.50;;;;;;;2.05;96.54;103172.79;108016;1277;60787;-80
2022/01/13 00:52:04;;;;;;;25.20;11.00;;;;;;;2.08;96.16;103174.11;108094;1277;73588;-79
2022/01/13 00:54:32;;;;;;;28.50;13.00;;;;;;;2.09;95.74;103173.55;108053;1277;72598;-80
2022/01/13 00:57:00;;;;;;;31.40;12.80;;;;;;;2.10;95.84;103169.52;108264;1277;71832;-77
2022/01/13 00:59:29;;;;;;;29.80;11.20;;;;;;;2.08;95.75;103163.12;108092;1277;61469;-78
2022/01/13 01:02:24;;;;;;;24.90;12.20;;;;;;;2.05;95.81;103164.60;108229;1277;61576;-78
2022/01/13 01:04:55;;;;;;;23.80;11.10;;;;;;;2.02;96.05;103169.41;108278;1277;74935;-78
2022/01/13 01:07:25;;;;;;;25.50;11.60;;;;;;;2.01;96.33;103177.70;108316;1277;71497;-79
2022/01/13 01:09:58;;;;;;;37.70;16.20;;;;;;;1.97;96.60;103173.96;108165;1277;72959;-81
2022/01/13 01:12:56;;;;;;;22.00;10.00;;;;;;;1.94;96.76;103172.88;108405;1276;62492;-81
2022/01/13 01:15:27;;;;;;;34.90;14.20;;;;;;;1.91;96.66;103176.46;108186;1274;62159;-81
2022/01/13 01:18:01;;;;;;;23.90;9.80;;;;;;;1.90;96.82;103173.71;108391;1276;74972;-78
2022/01/13 01:20:45;;;;;;;28.40;12.30;;;;;;;1.89;97.12;103173.60;108256;1277;71437;-79
2022/01/13 01:23:22;;;;;;;36.90;15.40;;;;;;;1.88;97.14;103168.91;108032;1277;72923;-79
2022/01/13 01:26:03;;;;;;;29.00;13.10;;;;;;;1.88;97.53;103168.92;108300;1277;62510;-79
2022/01/13 01:28:40;;;;;;;24.90;10.80;;;;;;;1.86;97.59;103178.60;108328;1277;60800;-79
2022/01/13 01:31:11;;;;;;;29.50;13.40;;;;;;;1.83;97.51;103177.27;108264;1277;76645;-79
2022/01/13 01:34:01;;;;;;;40.70;15.50;;;;;;;1.82;97.74;103183.08;108127;1277;71045;-79
2022/01/13 01:36:31;;;;;;;32.70;15.00;;;;;;;1.81;97.93;103182.44;108236;1277;72851;-78
2022/01/13 01:38:59;;;;;;;35.80;14.50;;;;;;;1.78;98.09;103188.12;108306;1277;61792;-79
2022/01/13 01:41:29;;;;;;;36.30;14.40;;;;;;;1.77;98.13;103186.75;108057;1277;60327;-78
2022/01/13 01:44:01;;;;;;;24.30;12.60;;;;;;;1.77;98.24;103186.76;108329;1276;77349;-79
2022/01/13 01:46:39;;;;;;;37.30;14.90;;;;;;;1.77;98.35;103190.77;108375;1277;71434;-79
2022/01/13 01:49:26;;;;;;;39.50;19.50;;;;;;;1.75;98.44;103186.14;108246;1277;74877;-79
2022/01/13 01:52:00;;;;;;;44.40;17.50;;;;;;;1.74;98.84;103188.09;108322;1276;61479;-78
2022/01/13 01:54:28;;;;;;;37.80;16.60;;;;;;;1.72;98.79;103183.98;108279;1277;60618;-78
2022/01/13 01:56:55;;;;;;;41.60;18.10;;;;;;;1.70;99.17;103184.73;108332;1276;75094;-78
2022/01/13 01:59:26;;;;;;;37.60;15.50;;;;;;;1.69;99.20;103186.18;108318;1275;72271;-77
2022/01/13 02:01:57;;;;;;;30.20;13.60;;;;;;;1.69;99.36;103183.39;108029;1278;72980;-80
2022/01/13 02:04:30;;;;;;;41.60;18.80;;;;;;;1.69;99.37;103181.49;108282;1276;62551;-80
2022/01/13 02:07:17;;;;;;;38.70;16.80;;;;;;;1.68;99.56;103174.73;108160;1277;60342;-81
2022/01/13 02:10:04;;;;;;;;;;;;;;;;;;;;;
2022/01/13 02:12:40;;;;;;;47.40;18.80;;;;;;;1.67;99.79;103173.19;108100;1278;71397;-79
2022/01/13 02:17:39;;;;;;;47.10;18.20;;;;;;;1.66;99.95;103161.02;108055;1278;60633;-79
2022/01/13 02:20:13;;;;;;;41.30;16.10;;;;;;;1.66;99.85;103153.88;108262;1277;61651;-78
2022/01/13 02:23:11;;;;;;;47.60;18.80;;;;;;;1.65;100.00;103160.70;108126;1276;76086;-79
2022/01/13 02:25:45;;;;;;;39.80;17.70;;;;;;;1.66;100.00;103166.61;108174;1277;72286;-78
2022/01/13 02:28:12;;;;;;;43.80;15.80;;;;;;;1.65;100.00;103161.38;108310;1276;73028;-78
2022/01/13 02:30:42;;;;;;;52.00;19.30;;;;;;;1.66;100.00;103157.89;108304;1276;59027;-79
2022/01/13 02:33:49;;;;;;;47.80;19.10;;;;;;;1.66;100.00;103156.83;104087;1277;5419914;-81
2022/01/13 02:36:27;;;;;;;51.10;21.10;;;;;;;1.66;100.00;103150.37;108019;1279;76892;-81
2022/01/13 02:39:01;;;;;;;40.40;15.40;;;;;;;1.66;100.00;103141.48;108061;1277;70438;-81
2022/01/13 02:41:28;;;;;;;35.20;13.20;;;;;;;1.65;100.00;103143.77;108273;1277;74100;-80
2022/01/13 02:44:13;;;;;;;;;;;;;;;;;;;;;
2022/01/13 02:49:24;;;;;;;42.80;20.30;;;;;;;1.62;100.00;103118.55;108088;1277;75926;-81
2022/01/13 02:51:53;;;;;;;47.60;20.60;;;;;;;1.61;100.00;103115.28;108163;1278;71486;-81
2022/01/13 02:54:20;;;;;;;49.10;18.00;;;;;;;1.62;100.00;103110.02;108420;1277;73308;-81
2022/01/13 02:56:57;;;;;;;50.20;19.10;;;;;;;1.63;100.00;103104.39;108410;1277;62382;-81
2022/01/13 02:59:43;;;;;;;41.90;16.30;;;;;;;1.65;100.00;103092.67;108409;1276;61594;-80
2022/01/13 03:02:30;;;;;;;;;;;;;;;;;;;;;
2022/01/13 03:05:11;;;;;;;40.90;16.50;;;;;;;1.66;100.00;103088.98;108416;1277;72922;-80
2022/01/13 03:07:43;;;;;;;45.80;14.50;;;;;;;1.69;100.00;103089.55;108299;1277;74043;-80
2022/01/13 03:10:32;;;;;;;50.60;17.60;;;;;;;1.71;100.00;103087.05;108398;1276;61692;-80
2022/01/13 03:13:00;;;;;;;62.60;22.00;;;;;;;1.71;100.00;103091.90;108287;1277;59108;-81
2022/01/13 03:15:54;;;;;;;62.00;23.10;;;;;;;1.72;100.00;103092.23;108254;1267;75987;-80
2022/01/13 03:18:34;;;;;;;;;;;;;;;;;;;;;
2022/01/13 03:21:15;;;;;;;;;;;;;;;;;;;;;
2022/01/13 03:23:51;;;;;;;45.50;17.70;;;;;;;1.76;100.00;103088.41;108242;1276;62604;-81
2022/01/13 03:26:44;;;;;;;45.40;17.50;;;;;;;1.78;100.00;103087.64;108084;1279;60646;-81
2022/01/13 03:31:41;;;;;;;51.10;19.20;;;;;;;1.79;100.00;103085.29;108249;1277;71403;-80
2022/01/13 03:34:10;;;;;;;56.30;22.30;;;;;;;1.83;100.00;103078.73;108186;1279;73101;-80
2022/01/13 03:36:45;;;;;;;50.50;19.10;;;;;;;1.84;100.00;103074.30;108184;1277;61698;-79
2022/01/13 03:39:15;;;;;;;39.30;14.70;;;;;;;1.85;100.00;103083.35;107953;1269;153340;-79
2022/01/13 03:41:41;;;;;;;41.00;14.50;;;;;;;1.86;100.00;103078.08;108346;1276;76264;-79
2022/01/13 03:44:29;;;;;;;35.60;13.90;;;;;;;1.88;100.00;103081.33;108319;1276;71327;-80
2022/01/13 03:47:10;;;;;;;;;;;;;;;;;;;;;
2022/01/13 03:49:51;;;;;;;25.10;9.80;;;;;;;1.91;100.00;103077.89;108362;1277;61274;-80
2022/01/13 03:52:27;;;;;;;50.90;21.00;;;;;;;1.90;100.00;103075.11;108209;1276;59371;-80
2022/01/13 03:55:31;;;;;;;34.50;12.40;;;;;;;1.93;100.00;103070.98;108416;1275;74731;-80
2022/01/13 03:58:38;;;;;;;30.10;12.80;;;;;;;1.95;100.00;103060.08;108420;1276;70545;-80
2022/01/13 04:01:59;;;;;;;32.50;14.70;;;;;;;1.95;100.00;103058.20;108432;1276;73161;-79
2022/01/13 04:04:34;;;;;;;43.70;17.60;;;;;;;1.92;100.00;103049.91;108342;1276;60108;-80
2022/01/13 04:07:27;;;;;;;40.70;14.80;;;;;;;1.93;100.00;103053.73;108375;1277;61465;-80
2022/01/13 04:10:35;;;;;;;30.70;12.00;;;;;;;1.94;100.00;103053.84;108286;1276;75186;-80
2022/01/13 04:13:32;;;;;;;;;;;;;;;;;;;;;
2022/01/13 04:16:00;;;;;;;33.70;13.90;;;;;;;1.97;100.00;103049.56;108284;1276;74341;-80
2022/01/13 04:18:27;;;;;;;32.50;11.70;;;;;;;1.99;100.00;103049.48;108431;1277;62587;-79
2022/01/13 04:21:23;;;;;;;41.90;16.10;;;;;;;1.99;100.00;103040.95;108410;1277;60609;-80
2022/01/13 04:24:03;;;;;;;47.70;13.90;;;;;;;2.00;100.00;103033.55;108301;1277;74482;-80
2022/01/13 04:26:32;;;;;;;39.60;15.10;;;;;;;2.02;100.00;103028.59;108409;1276;71619;-80
2022/01/13 04:29:18;;;;;;;35.90;13.00;;;;;;;2.03;100.00;103028.55;108053;1277;72048;-80
2022/01/13 04:31:58;;;;;;;34.30;13.20;;;;;;;2.05;100.00;103036.33;108353;1277;62607;-81
2022/01/13 04:34:26;;;;;;;34.20;11.40;;;;;;;2.05;100.00;103039.11;108228;1277;61157;-79
2022/01/13 04:37:12;;;;;;;33.70;12.50;;;;;;;2.06;100.00;103041.51;108288;1277;75159;-80
2022/01/13 04:40:44;;;;;;;39.50;14.20;;;;;;;2.09;100.00;103035.80;108317;1277;72388;-79
2022/01/13 04:43:34;;;;;;;33.50;13.60;;;;;;;2.11;100.00;103040.10;108216;1277;72862;-81
2022/01/13 04:46:02;;;;;;;27.90;10.00;;;;;;;2.10;100.00;103034.89;108429;1277;61312;-81
2022/01/13 04:48:49;;;;;;;32.10;11.20;;;;;;;2.11;100.00;103043.60;108291;1277;61832;-81
2022/01/13 04:51:26;;;;;;;32.30;11.30;;;;;;;2.14;100.00;103050.46;108290;1277;76295;-81
2022/01/13 04:53:56;;;;;;;46.20;17.00;;;;;;;2.15;100.00;103053.36;108290;1269;71351;-80
2022/01/13 04:59:22;;;;;;;36.80;14.00;;;;;;;2.19;100.00;103049.86;108028;1276;62471;-79
2022/01/13 05:01:49;;;;;;;30.20;12.40;;;;;;;2.21;100.00;103049.98;108404;1276;62488;-79
2022/01/13 05:04:16;;;;;;;35.40;13.50;;;;;;;2.23;100.00;103049.71;108176;1276;74901;-79
2022/01/13 05:06:42;;;;;;;37.30;12.20;;;;;;;2.25;100.00;103053.83;108252;1276;72336;-78
2022/01/13 05:09:12;;;;;;;37.40;14.00;;;;;;;2.27;100.00;103055.84;108323;1276;74347;-78
2022/01/13 05:11:39;;;;;;;23.60;10.80;;;;;;;2.29;100.00;103052.13;108383;1276;61882;-78
2022/01/13 05:14:06;;;;;;;29.90;10.90;;;;;;;2.30;100.00;103052.08;108231;1276;61640;-78
2022/01/13 05:16:50;;;;;;;30.40;11.70;;;;;;;2.29;100.00;103049.69;108418;1276;75142;-79
2022/01/13 05:19:22;;;;;;;24.90;8.00;;;;;;;2.30;100.00;103048.41;108251;1276;71368;-79
2022/01/13 05:24:27;;;;;;;31.00;11.30;;;;;;;2.32;100.00;103059.49;108275;1277;62695;-80
2022/01/13 05:27:08;;;;;;;28.20;10.10;;;;;;;2.33;100.00;103059.09;108268;1277;61616;-80
2022/01/13 05:29:35;;;;;;;27.90;9.70;;;;;;;2.33;100.00;103062.75;108313;1276;76327;-77
2022/01/13 05:32:11;;;;;;;28.60;10.30;;;;;;;2.32;100.00;103056.02;108101;1278;72703;-78
2022/01/13 05:34:45;;;;;;;28.10;9.40;;;;;;;2.33;100.00;103053.35;108321;1277;72887;-79
2022/01/13 05:37:12;;;;;;;33.20;10.80;;;;;;;2.32;100.00;103055.10;108345;1277;61489;-78
2022/01/13 05:39:39;;;;;;;23.40;8.90;;;;;;;2.32;100.00;103058.44;108343;1276;60675;-78
2022/01/13 05:42:06;;;;;;;39.30;14.10;;;;;;;2.32;100.00;103055.31;108260;1276;75939;-79
2022/01/13 05:44:38;;;;;;;24.90;10.10;;;;;;;2.34;100.00;103050.69;108339;1277;71305;-78
2022/01/13 05:47:08;;;;;;;30.50;10.80;;;;;;;2.33;100.00;103058.77;108245;1277;71575;-78
2022/01/13 05:49:55;;;;;;;37.50;13.90;;;;;;;2.33;100.00;103054.05;108244;1277;62594;-80
2022/01/13 05:52:23;;;;;;;32.30;13.00;;;;;;;2.34;100.00;103049.96;108277;1277;59786;-80
2022/01/13 05:55:12;;;;;;;28.60;11.00;;;;;;;2.33;100.00;103048.96;108238;1277;74877;-80
2022/01/13 05:57:39;;;;;;;29.40;11.90;;;;;;;2.34;100.00;103046.84;108306;1278;71853;-77
2022/01/13 06:00:08;;;;;;;31.70;9.50;;;;;;;2.33;100.00;103041.48;108266;1277;74171;-78
2022/01/13 06:02:35;;;;;;;29.30;11.10;;;;;;;2.33;100.00;103047.20;108362;1277;62451;-78
2022/01/13 06:05:03;;;;;;;34.70;13.10;;;;;;;2.31;100.00;103046.77;108375;1276;62529;-77
2022/01/13 06:07:30;;;;;;;30.60;13.40;;;;;;;2.31;100.00;103039.45;108381;1276;75105;-77
2022/01/13 06:09:57;;;;;;;32.60;11.80;;;;;;;2.31;100.00;103044.86;108316;1277;72390;-78
2022/01/13 06:12:35;;;;;;;31.50;9.90;;;;;;;2.32;100.00;103037.63;108406;1277;74103;-78
2022/01/13 06:15:07;;;;;;;20.90;9.10;;;;;;;2.34;100.00;103042.65;108317;1277;61508;-79
2022/01/13 06:17:36;;;;;;;36.20;12.50;;;;;;;2.34;100.00;103040.73;108395;1276;60587;-79
2022/01/13 06:20:08;;;;;;;39.60;13.30;;;;;;;2.34;100.00;103036.86;108233;1277;73987;-78
2022/01/13 06:22:36;;;;;;;31.00;12.30;;;;;;;2.36;100.00;103023.85;108231;1276;71326;-78
2022/01/13 06:25:05;;;;;;;38.20;12.90;;;;;;;2.38;100.00;103026.59;108369;1276;72895;-78
2022/01/13 06:27:36;;;;;;;34.50;13.00;;;;;;;2.39;100.00;103020.59;108328;1277;61496;-78
2022/01/13 06:30:09;;;;;;;31.60;9.60;;;;;;;2.39;100.00;103027.58;108214;1278;61587;-78
2022/01/13 06:32:37;;;;;;;34.30;11.70;;;;;;;2.41;100.00;103023.67;108217;1277;73921;-78
2022/01/13 06:35:05;;;;;;;36.60;12.00;;;;;;;2.42;100.00;103019.96;108179;1278;71416;-78
2022/01/13 06:37:45;;;;;;;24.90;10.20;;;;;;;2.43;100.00;103021.50;108390;1277;74095;-80
2022/01/13 06:40:16;;;;;;;35.40;13.80;;;;;;;2.43;100.00;103025.33;108320;1277;63818;-81
2022/01/13 06:42:43;;;;;;;32.90;12.40;;;;;;;2.41;100.00;103018.95;108290;1277;60559;-80
2022/01/13 06:45:15;;;;;;;34.10;13.60;;;;;;;2.39;100.00;103022.54;108458;1276;75081;-80
2022/01/13 06:47:44;;;;;;;34.50;12.10;;;;;;;2.38;100.00;103026.94;108358;1277;71365;-80
2022/01/13 06:50:11;;;;;;;38.00;13.40;;;;;;;2.38;100.00;103022.76;108409;1277;72906;-79
2022/01/13 06:52:39;;;;;;;20.60;9.80;;;;;;;2.39;100.00;103024.48;108348;1277;62497;-79
2022/01/13 06:55:06;;;;;;;31.80;12.00;;;;;;;2.39;100.00;103034.05;108358;1277;60565;-79
2022/01/13 06:57:37;;;;;;;30.10;11.00;;;;;;;2.42;100.00;103033.58;108409;1276;76237;-79
2022/01/13 07:00:05;;;;;;;38.90;14.00;;;;;;;2.42;100.00;103035.48;108234;1277;71384;-78
2022/01/13 07:02:35;;;;;;;29.10;11.90;;;;;;;2.43;100.00;103035.95;108347;1275;73081;-78
2022/01/13 07:05:03;;;;;;;28.00;10.70;;;;;;;2.44;100.00;103037.67;108509;1275;62382;-79
2022/01/13 07:07:35;;;;;;;34.20;12.40;;;;;;;2.45;100.00;103031.36;108485;1275;61451;-78
2022/01/13 07:10:06;;;;;;;37.20;13.40;;;;;;;2.46;100.00;103032.89;108473;1276;73822;-79
2022/01/13 07:12:33;;;;;;;28.30;10.50;;;;;;;2.47;100.00;103035.30;108406;1277;71698;-79
2022/01/13 07:15:02;;;;;;;24.40;8.90;;;;;;;2.48;100.00;103038.90;108407;1277;73931;-79
2022/01/13 07:17:30;;;;;;;35.90;12.30;;;;;;;2.49;100.00;103043.42;108377;1277;61593;-79
2022/01/13 07:19:57;;;;;;;35.70;13.90;;;;;;;2.52;100.00;103044.71;108298;1277;61018;-79
2022/01/13 07:22:24;;;;;;;27.70;8.80;;;;;;;2.53;100.00;103049.71;108494;1276;74193;-79
2022/01/13 07:24:51;;;;;;;22.40;10.20;;;;;;;2.53;100.00;103058.96;108372;1277;71501;-78
2022/01/13 07:27:19;;;;;;;24.10;10.50;;;;;;;2.52;100.00;103056.75;108380;1277;72733;-78
2022/01/13 07:29:46;;;;;;;24.30;9.80;;;;;;;2.51;100.00;103059.24;108319;1267;152551;-75
2022/01/13 07:32:13;;;;;;;23.80;10.50;;;;;;;2.51;100.00;103059.21;108309;1277;60647;-75
2022/01/13 07:34:40;;;;;;;28.70;11.00;;;;;;;2.52;100.00;103054.30;108265;1276;74035;-75
2022/01/13 07:37:12;;;;;;;21.50;7.80;;;;;;;2.53;100.00;103055.33;108480;1276;72080;-75
2022/01/13 07:39:38;;;;;;;34.40;11.80;;;;;;;2.52;100.00;103056.39;108453;1273;73946;-76
2022/01/13 07:42:06;;;;;;;30.70;9.90;;;;;;;2.54;100.00;103049.87;108263;1277;61504;-76
2022/01/13 07:44:33;;;;;;;29.80;11.20;;;;;;;2.54;100.00;103063.33;108482;1275;62462;-76
2022/01/13 07:47:00;;;;;;;22.80;8.20;;;;;;;2.55;100.00;103057.14;108417;1276;75088;-75
2022/01/13 07:49:30;;;;;;;32.10;10.10;;;;;;;2.56;100.00;103050.98;108273;1277;71607;-77
2022/01/13 07:51:57;;;;;;;27.90;9.50;;;;;;;2.57;100.00;103057.40;108395;1276;73962;-76
2022/01/13 07:54:32;;;;;;;26.60;9.30;;;;;;;2.60;100.00;103057.82;108416;1276;62413;-75
2022/01/13 07:57:00;;;;;;;23.40;8.70;;;;;;;2.63;100.00;103053.99;108460;1276;60435;-75
2022/01/13 07:59:30;;;;;;;29.90;10.90;;;;;;;2.65;100.00;103055.84;108390;1275;76089;-76
2022/01/13 08:01:58;;;;;;;28.70;11.00;;;;;;;2.68;100.00;103066.89;108437;1275;71457;-76
2022/01/13 08:04:25;;;;;;;37.60;13.70;;;;;;;2.72;100.00;103070.77;108153;1276;75512;-76
2022/01/13 08:06:52;;;;;;;37.40;14.80;;;;;;;2.74;100.00;103063.32;108276;1277;61460;-76
2022/01/13 08:09:22;;;;;;;40.60;14.30;;;;;;;2.75;100.00;103066.08;108189;1277;60652;-76
2022/01/13 08:11:49;;;;;;;40.90;14.70;;;;;;;2.76;100.00;103064.45;108503;1275;75911;-75
2022/01/13 08:14:15;;;;;;;45.30;16.10;;;;;;;2.78;100.00;103069.44;108321;1277;72517;-76
2022/01/13 08:16:44;;;;;;;47.50;16.50;;;;;;;2.80;100.00;103069.37;108417;1276;74135;-77
2022/01/13 08:21:57;;;;;;;40.10;15.60;;;;;;;2.84;100.00;103068.65;108371;1277;60469;-76
2022/01/13 08:24:24;;;;;;;38.70;14.80;;;;;;;2.85;100.00;103065.62;108483;1275;74839;-76
2022/01/13 08:26:51;;;;;;;37.40;12.80;;;;;;;2.87;99.97;103069.22;108410;1277;71349;-76
2022/01/13 08:29:18;;;;;;;40.00;14.20;;;;;;;2.88;100.00;103069.73;108471;1276;73029;-76
2022/01/13 08:31:47;;;;;;;32.70;11.60;;;;;;;2.90;99.96;103075.07;108286;1277;61462;-76
2022/01/13 08:34:16;;;;;;;41.50;14.70;;;;;;;2.90;99.93;103080.66;108253;1277;60414;-76
2022/01/13 08:36:43;;;;;;;34.00;11.70;;;;;;;2.91;100.00;103085.50;108375;1277;75964;-76
2022/01/13 08:39:11;;;;;;;41.80;13.20;;;;;;;2.94;100.00;103081.71;108293;1277;72145;-76
2022/01/13 08:41:40;;;;;;;27.20;11.30;;;;;;;2.96;100.00;103080.58;108093;1276;73740;-76
2022/01/13 08:44:08;;;;;;;21.90;8.70;;;;;;;2.98;100.00;103094.29;108467;1276;62215;-76
2022/01/13 08:46:35;;;;;;;27.20;10.70;;;;;;;2.99;100.00;103101.39;108406;1276;60285;-76
2022/01/13 08:49:03;;;;;;;27.10;8.40;;;;;;;3.03;100.00;103096.87;108383;1276;74574;-77
2022/01/13 08:51:29;;;;;;;28.90;10.00;;;;;;;3.06;100.00;103106.02;108307;1277;72335;-76
2022/01/13 08:53:56;;;;;;;29.40;11.40;;;;;;;3.08;100.00;103098.77;108451;1275;74125;-76
2022/01/13 08:56:23;;;;;;;25.10;9.10;;;;;;;3.10;100.00;103093.25;108449;1276;62607;-75
2022/01/13 08:58:50;;;;;;;29.80;10.00;;;;;;;3.12;100.00;103092.09;108481;1276;60687;-76
2022/01/13 09:01:17;;;;;;;32.50;12.20;;;;;;;3.14;100.00;103087.45;108140;1277;75524;-76
2022/01/13 09:03:44;;;;;;;23.80;9.20;;;;;;;3.17;100.00;103085.60;108480;1277;71388;-76
2022/01/13 09:06:11;;;;;;;25.70;9.10;;;;;;;3.18;99.94;103085.86;108441;1276;74160;-76
2022/01/13 09:08:40;;;;;;;34.90;13.30;;;;;;;3.20;99.91;103085.79;108200;1277;63299;-75
2022/01/13 09:11:07;;;;;;;29.80;11.00;;;;;;;3.23;99.61;103080.75;108452;1277;60771;-75
2022/01/13 09:13:37;;;;;;;32.00;10.80;;;;;;;3.24;99.29;103084.02;108380;1277;75181;-76
2022/01/13 09:16:13;;;;;;;28.60;10.60;;;;;;;3.24;99.13;103086.98;108141;1277;70332;-76
2022/01/13 09:21:25;;;;;;;24.10;9.60;;;;;;;3.25;99.23;103090.65;108167;1276;62283;-74
2022/01/13 09:23:52;;;;;;;32.40;10.90;;;;;;;3.27;99.27;103087.61;108173;1277;60702;-74
2022/01/13 09:26:23;;;;;;;33.80;11.70;;;;;;;3.29;99.20;103091.91;108442;1276;75937;-76
2022/01/13 09:28:55;;;;;;;26.60;10.20;;;;;;;3.30;99.04;103093.24;108325;1277;71572;-76
2022/01/13 09:31:22;;;;;;;33.10;11.90;;;;;;;3.30;98.73;103097.08;108440;1277;72969;-76
2022/01/13 09:33:50;;;;;;;42.30;16.00;;;;;;;3.28;98.47;103094.54;108365;1277;59407;-76
2022/01/13 09:36:18;;;;;;;31.10;11.60;;;;;;;3.29;98.14;103088.91;108455;1276;59560;-76
2022/01/13 09:38:48;;;;;;;38.30;13.10;;;;;;;3.32;98.38;103085.12;108294;1277;76415;-76
2022/01/13 09:41:16;;;;;;;29.00;11.20;;;;;;;3.35;98.38;103085.30;108467;1276;71532;-76
2022/01/13 09:43:45;;;;;;;28.30;11.70;;;;;;;3.38;98.38;103082.75;108341;1276;71922;-75
2022/01/13 09:46:12;;;;;;;25.30;8.10;;;;;;;3.40;98.50;103083.15;108484;1276;60971;-76
2022/01/13 09:48:43;;;;;;;25.90;8.90;;;;;;;3.45;98.33;103085.40;108439;1275;61906;-75
2022/01/13 09:51:11;;;;;;;28.50;11.10;;;;;;;3.48;98.14;103081.42;108324;1276;76123;-76
2022/01/13 09:53:38;;;;;;;24.60;11.30;;;;;;;3.52;98.04;103085.23;108184;1277;71944;-76
2022/01/13 09:56:08;;;;;;;32.70;13.90;;;;;;;3.57;97.48;103087.09;108467;1276;74060;-75
2022/01/13 09:58:35;;;;;;;30.30;12.70;;;;;;;3.64;97.53;103090.65;108321;1276;61194;-75
2022/01/13 10:01:04;;;;;;;34.70;12.20;;;;;;;3.68;96.90;103095.51;108216;1276;60733;-76
2022/01/13 10:03:33;;;;;;;32.40;12.50;;;;;;;3.73;96.26;103097.76;108469;1277;74988;-76
2022/01/13 10:06:21;;;;;;;31.10;11.40;;;;;;;3.77;96.10;103098.98;108469;1275;71194;-76
2022/01/13 10:08:49;;;;;;;30.80;11.70;;;;;;;3.84;95.78;103099.71;108466;1276;74094;-76
2022/01/13 10:11:40;;;;;;;32.40;12.60;;;;;;;3.88;95.29;103092.86;108361;1277;62757;-76
2022/01/13 10:14:14;;;;;;;35.40;14.10;;;;;;;3.91;94.80;103097.62;108449;1276;61609;-77
2022/01/13 10:16:49;;;;;;;28.60;10.80;;;;;;;3.95;94.43;103094.80;108405;1277;75461;-76
2022/01/13 10:19:28;;;;;;;40.60;14.90;;;;;;;4.00;94.27;103090.21;108443;1276;72134;-76
2022/01/13 10:21:57;;;;;;;51.00;15.70;;;;;;;4.07;94.14;103084.56;108408;1277;72929;-76
2022/01/13 10:24:26;;;;;;;43.90;14.00;;;;;;;4.18;93.68;103084.27;108233;1277;60711;-76
2022/01/13 10:27:03;;;;;;;41.50;15.00;;;;;;;4.31;93.66;103089.23;108330;1277;62087;-75
2022/01/13 10:29:38;;;;;;;33.70;12.30;;;;;;;4.40;93.00;103090.54;108299;1275;74039;-76
2022/01/13 10:32:05;;;;;;;;;;;;;;;4.43;92.29;103081.42;108346;1277;71433;-76
2022/01/13 10:34:32;;;;;;;33.90;11.60;;;;;;;4.45;92.31;103072.24;108145;1277;74124;-76
2022/01/13 10:37:07;;;;;;;38.80;13.80;;;;;;;4.46;91.70;103069.36;108382;1276;62372;-76
2022/01/13 10:39:57;;;;;;;41.50;16.40;;;;;;;4.46;91.76;103070.41;108339;1277;61924;-75
2022/01/13 10:45:14;;;;;;;34.90;13.20;;;;;;;4.54;92.06;103061.96;108425;1276;71298;-76
2022/01/13 10:47:51;;;;;;;35.00;12.40;;;;;;;4.65;91.92;103059.30;108454;1275;74560;-76
2022/01/13 10:50:19;;;;;;;33.70;12.00;;;;;;;4.76;91.47;103056.83;108303;1277;61436;-75
2022/01/13 10:52:46;;;;;;;30.10;12.60;;;;;;;4.81;91.41;103047.44;108484;1276;60092;-76
2022/01/13 10:55:16;;;;;;;32.40;11.60;;;;;;;4.85;91.03;103042.48;108407;1276;74943;-75
2022/01/13 10:58:03;;;;;;;25.60;10.40;;;;;;;4.85;90.87;103048.08;108361;1277;73083;-76
2022/01/13 11:00:33;;;;;;;27.80;10.80;;;;;;;4.82;90.71;103048.98;108371;1277;74039;-76
2022/01/13 11:03:04;;;;;;;29.00;10.80;;;;;;;4.83;91.22;103050.17;108348;1277;62172;-76
2022/01/13 11:05:53;;;;;;;23.10;11.00;;;;;;;4.85;91.28;103053.75;108267;1277;59563;-76
2022/01/13 11:08:43;;;;;;;;;;;;;;;;;;;;;
2022/01/13 11:11:30;;;;;;;20.70;9.20;;;;;;;4.94;91.58;103049.23;108065;1277;73506;-76
2022/01/13 11:14:03;;;;;;;27.90;12.10;;;;;;;4.97;91.34;103048.38;108430;1274;73005;-76
2022/01/13 11:16:30;;;;;;;31.40;10.40;;;;;;;5.02;91.15;103041.48;108364;1276;61885;-76
2022/01/13 11:19:00;;;;;;;27.50;10.90;;;;;;;5.08;90.65;103034.84;108402;1276;61084;-76
2022/01/13 11:21:29;;;;;;;33.40;11.10;;;;;;;5.15;90.43;103033.05;108431;1276;76878;-78
2022/01/13 11:23:56;;;;;;;30.70;11.80;;;;;;;5.29;90.14;103032.27;108388;1277;72474;-76
2022/01/13 11:26:27;;;;;;;29.00;11.40;;;;;;;5.45;89.35;103030.40;108405;1276;73436;-75
2022/01/13 11:28:55;;;;;;;31.80;13.00;;;;;;;5.58;89.03;103024.06;108257;1277;60467;-76
2022/01/13 11:31:22;;;;;;;22.60;8.20;;;;;;;5.75;88.45;103011.69;108245;1277;61779;-75
2022/01/13 11:33:52;;;;;;;24.60;10.40;;;;;;;5.78;87.08;103011.89;108119;1271;74909;-76
2022/01/13 11:36:23;;;;;;;29.80;11.20;;;;;;;5.72;86.91;103009.04;108369;1276;71348;-76
2022/01/13 11:38:59;;;;;;;25.30;10.90;;;;;;;5.67;86.81;103010.38;108307;1277;73980;-78
2022/01/13 11:41:26;;;;;;;36.60;13.40;;;;;;;5.64;86.85;103009.33;108361;1277;61710;-77
2022/01/13 11:43:53;;;;;;;28.50;10.60;;;;;;;5.65;86.54;103008.40;108281;1277;61622;-76
2022/01/13 11:46:23;;;;;;;22.90;9.20;;;;;;;5.77;86.72;102999.84;108225;1277;74869;-76
2022/01/13 11:49:57;;;;;;;25.00;10.70;;;;;;;5.97;86.21;102993.81;108418;1277;72265;-77
2022/01/13 11:51:58;;;;;;;24.60;11.70;;;;;;;6.32;84.47;102984.73;108026;1277;73508;-75
2022/01/13 11:54:31;;;;;;;32.40;12.20;;;;;;;6.49;83.26;102981.06;108407;1277;60713;-76
2022/01/13 11:57:26;;;;;;;31.30;10.40;;;;;;;6.70;82.82;102975.06;108310;1277;62108;-76
2022/01/13 11:59:56;;;;;;;25.90;11.80;;;;;;;6.88;81.69;102967.11;108245;1277;74954;-76
2022/01/13 12:02:39;;;;;;;26.40;10.40;;;;;;;7.14;81.23;102970.23;108329;1277;71594;-77
2022/01/13 12:05:14;;;;;;;28.10;12.70;;;;;;;7.53;80.16;102972.91;108369;1277;74340;-77
2022/01/13 12:07:53;;;;;;;22.80;11.10;;;;;;;7.92;79.27;102967.36;108217;1277;61448;-77
2022/01/13 12:10:20;;;;;;;23.70;9.80;;;;;;;8.33;78.11;102965.31;108315;1277;59020;-77